sensor_id;sensor_type;location;lat;lon;timestamp;pressure;altitude;pressure_sealevel;temperature;humidity
28927;BME280;16038;47.692;9.400;2023-02-12T00:01:46;98509.22;;;-3.37;100.00
28927;BME280;16038;47.692;9.400;2023-02-12T00:04:11;98507.59;;;-3.38;100.00
28927;BME280;16038;47.692;9.400;2023-02-12T00:06:37;98519.84;;;-3.30;100.00
28927;BME280;16038;47.692;9.400;2023-02-12T00:09:02;98505.88;;;-3.20;100.00
28927;BME280;16038;47.692;9.400;2023-02-12T00:11:28;98508.91;;;-3.17;100.00
28927;BME280;16038;47.692;9.400;2023-02-12T00:13:54;98506.22;;;-3.17;100.00
28927;BME280;16038;47.692;9.400;2023-02-12T00:16:20;98505.41;;;-3.29;100.00
28927;BME280;16038;47.692;9.400;2023-02-12T00:18:46;98511.44;;;-3.46;100.00
28927;BME280;16038;47.692;9.400;2023-02-12T00:21:11;98516.63;;;-3.74;100.00
28927;BME280;16038;47.692;9.400;2023-02-12T00:23:38;98526.22;;;-3.97;100.00
28927;BME280;16038;47.692;9.400;2023-02-12T00:26:08;98532.63;;;-3.98;100.00
28927;BME280;16038;47.692;9.400;2023-02-12T00:28:34;98520.91;;;-3.85;100.00
28927;BME280;16038;47.692;9.400;2023-02-12T00:31:04;98513.28;;;-3.58;100.00
28927;BME280;16038;47.692;9.400;2023-02-12T00:33:29;98506.31;;;-3.47;100.00
28927;BME280;16038;47.692;9.400;2023-02-12T00:35:55;98512.25;;;-3.45;100.00
28927;BME280;16038;47.692;9.400;2023-02-12T00:38:21;98517.88;;;-3.23;100.00
28927;BME280;16038;47.692;9.400;2023-02-12T00:40:46;98512.50;;;-3.11;100.00
28927;BME280;16038;47.692;9.400;2023-02-12T00:43:11;98509.69;;;-3.04;100.00
28927;BME280;16038;47.692;9.400;2023-02-12T00:45:36;98508.78;;;-3.10;100.00
28927;BME280;16038;47.692;9.400;2023-02-12T00:48:02;98509.13;;;-3.07;100.00
28927;BME280;16038;47.692;9.400;2023-02-12T00:50:27;98516.13;;;-3.05;100.00
28927;BME280;16038;47.692;9.400;2023-02-12T00:52:53;98520.06;;;-3.08;100.00
28927;BME280;16038;47.692;9.400;2023-02-12T00:55:18;98521.69;;;-3.19;100.00
28927;BME280;16038;47.692;9.400;2023-02-12T00:57:43;98509.69;;;-3.28;100.00
28927;BME280;16038;47.692;9.400;2023-02-12T01:00:09;98503.75;;;-3.30;100.00
28927;BME280;16038;47.692;9.400;2023-02-12T01:02:34;98498.84;;;-3.33;100.00
28927;BME280;16038;47.692;9.400;2023-02-12T01:04:59;98497.94;;;-3.39;100.00
28927;BME280;16038;47.692;9.400;2023-02-12T01:07:25;98500.03;;;-3.41;100.00
28927;BME280;16038;47.692;9.400;2023-02-12T01:09:50;98506.69;;;-3.43;100.00
28927;BME280;16038;47.692;9.400;2023-02-12T01:12:15;98498.88;;;-3.45;100.00
28927;BME280;16038;47.692;9.400;2023-02-12T01:14:41;98500.13;;;-3.48;100.00
28927;BME280;16038;47.692;9.400;2023-02-12T01:17:07;98508.88;;;-3.52;100.00
28927;BME280;16038;47.692;9.400;2023-02-12T01:19:32;98500.00;;;-3.65;100.00
28927;BME280;16038;47.692;9.400;2023-02-12T01:21:57;98514.41;;;-3.77;100.00
28927;BME280;16038;47.692;9.400;2023-02-12T01:24:22;98506.38;;;-3.77;100.00
28927;BME280;16038;47.692;9.400;2023-02-12T01:26:48;98508.44;;;-3.91;100.00
28927;BME280;16038;47.692;9.400;2023-02-12T01:29:13;98513.97;;;-4.05;100.00
28927;BME280;16038;47.692;9.400;2023-02-12T01:31:38;98511.22;;;-3.98;100.00
28927;BME280;16038;47.692;9.400;2023-02-12T01:34:04;98507.34;;;-4.02;100.00
28927;BME280;16038;47.692;9.400;2023-02-12T01:36:30;98509.94;;;-3.95;100.00
28927;BME280;16038;47.692;9.400;2023-02-12T01:38:55;98518.00;;;-3.84;100.00
28927;BME280;16038;47.692;9.400;2023-02-12T01:41:23;98524.34;;;-3.96;100.00
28927;BME280;16038;47.692;9.400;2023-02-12T01:46:29;98516.16;;;-4.13;100.00
28927;BME280;16038;47.692;9.400;2023-02-12T01:48:55;98511.38;;;-4.11;100.00
28927;BME280;16038;47.692;9.400;2023-02-12T01:51:20;98499.88;;;-4.12;100.00
28927;BME280;16038;47.692;9.400;2023-02-12T01:53:48;98495.47;;;-4.06;100.00
28927;BME280;16038;47.692;9.400;2023-02-12T01:56:14;98495.38;;;-3.99;100.00
28927;BME280;16038;47.692;9.400;2023-02-12T01:58:41;98502.97;;;-3.85;100.00
28927;BME280;16038;47.692;9.400;2023-02-12T02:01:08;98502.28;;;-3.80;100.00
28927;BME280;16038;47.692;9.400;2023-02-12T02:03:35;98486.50;;;-4.00;100.00
28927;BME280;16038;47.692;9.400;2023-02-12T02:06:12;98497.56;;;-4.08;100.00
28927;BME280;16038;47.692;9.400;2023-02-12T02:08:39;98490.28;;;-3.89;100.00
28927;BME280;16038;47.692;9.400;2023-02-12T02:11:05;98499.03;;;-3.82;100.00
28927;BME280;16038;47.692;9.400;2023-02-12T02:13:50;98496.13;;;-3.80;100.00
28927;BME280;16038;47.692;9.400;2023-02-12T02:16:35;98494.47;;;-3.93;100.00
28927;BME280;16038;47.692;9.400;2023-02-12T02:19:02;98487.00;;;-3.91;100.00
28927;BME280;16038;47.692;9.400;2023-02-12T02:21:34;98493.66;;;-3.82;100.00
28927;BME280;16038;47.692;9.400;2023-02-12T02:29:33;98489.16;;;-3.81;100.00
28927;BME280;16038;47.692;9.400;2023-02-12T02:32:09;98486.91;;;-3.85;100.00
28927;BME280;16038;47.692;9.400;2023-02-12T02:34:58;98487.50;;;-3.82;100.00
28927;BME280;16038;47.692;9.400;2023-02-12T02:37:26;98488.53;;;-3.84;100.00
28927;BME280;16038;47.692;9.400;2023-02-12T02:40:39;98486.00;;;-3.78;100.00
28927;BME280;16038;47.692;9.400;2023-02-12T02:42:39;98494.03;;;-3.78;100.00
28927;BME280;16038;47.692;9.400;2023-02-12T02:45:14;98495.31;;;-3.81;100.00
28927;BME280;16038;47.692;9.400;2023-02-12T02:47:47;98494.59;;;-3.88;100.00
28927;BME280;16038;47.692;9.400;2023-02-12T02:50:15;98488.59;;;-4.02;100.00
28927;BME280;16038;47.692;9.400;2023-02-12T02:55:10;98488.25;;;-4.06;100.00
28927;BME280;16038;47.692;9.400;2023-02-12T02:57:41;98485.13;;;-4.03;100.00
28927;BME280;16038;47.692;9.400;2023-02-12T03:00:12;98488.59;;;-4.02;100.00
28927;BME280;16038;47.692;9.400;2023-02-12T03:02:39;98486.13;;;-4.15;100.00
28927;BME280;16038;47.692;9.400;2023-02-12T03:05:11;98489.91;;;-4.35;100.00
28927;BME280;16038;47.692;9.400;2023-02-12T03:07:44;98479.13;;;-4.47;100.00
28927;BME280;16038;47.692;9.400;2023-02-12T03:10:16;98473.75;;;-4.58;100.00
28927;BME280;16038;47.692;9.400;2023-02-12T03:12:45;98475.25;;;-4.63;100.00
28927;BME280;16038;47.692;9.400;2023-02-12T03:17:44;98466.53;;;-4.28;100.00
28927;BME280;16038;47.692;9.400;2023-02-12T03:20:12;98467.50;;;-4.22;100.00
28927;BME280;16038;47.692;9.400;2023-02-12T03:22:41;98467.31;;;-4.09;100.00
28927;BME280;16038;47.692;9.400;2023-02-12T03:25:10;98475.00;;;-4.00;100.00
28927;BME280;16038;47.692;9.400;2023-02-12T03:27:42;98470.72;;;-4.01;100.00
28927;BME280;16038;47.692;9.400;2023-02-12T03:30:08;98467.91;;;-4.07;100.00
28927;BME280;16038;47.692;9.400;2023-02-12T03:35:22;98468.13;;;-4.08;100.00
28927;BME280;16038;47.692;9.400;2023-02-12T03:52:58;98474.84;;;-4.17;100.00
28927;BME280;16038;47.692;9.400;2023-02-12T03:55:23;98472.84;;;-4.22;100.00
28927;BME280;16038;47.692;9.400;2023-02-12T03:57:51;98480.16;;;-4.29;100.00
28927;BME280;16038;47.692;9.400;2023-02-12T04:00:21;98477.97;;;-4.20;100.00
28927;BME280;16038;47.692;9.400;2023-02-12T04:02:47;98485.19;;;-4.21;100.00
28927;BME280;16038;47.692;9.400;2023-02-12T04:05:20;98491.56;;;-4.22;100.00
28927;BME280;16038;47.692;9.400;2023-02-12T04:07:46;98484.19;;;-4.38;100.00
28927;BME280;16038;47.692;9.400;2023-02-12T04:10:11;98490.44;;;-4.45;100.00
28927;BME280;16038;47.692;9.400;2023-02-12T04:12:46;98483.81;;;-4.42;100.00
28927;BME280;16038;47.692;9.400;2023-02-12T04:15:32;98490.16;;;-4.55;100.00
28927;BME280;16038;47.692;9.400;2023-02-12T04:25:42;98497.81;;;-4.77;100.00
28927;BME280;16038;47.692;9.400;2023-02-12T04:30:43;98514.38;;;-4.87;100.00
28927;BME280;16038;47.692;9.400;2023-02-12T04:33:10;98519.66;;;-4.98;100.00
28927;BME280;16038;47.692;9.400;2023-02-12T04:35:47;98516.28;;;-4.94;100.00
28927;BME280;16038;47.692;9.400;2023-02-12T04:38:21;98507.31;;;-5.00;100.00
28927;BME280;16038;47.692;9.400;2023-02-12T04:40:49;98523.81;;;-4.84;100.00
28927;BME280;16038;47.692;9.400;2023-02-12T04:43:25;98521.63;;;-4.94;100.00
28927;BME280;16038;47.692;9.400;2023-02-12T04:45:50;98527.28;;;-4.84;100.00
28927;BME280;16038;47.692;9.400;2023-02-12T04:48:15;98514.31;;;-4.80;100.00
28927;BME280;16038;47.692;9.400;2023-02-12T04:50:41;98516.44;;;-4.70;100.00
28927;BME280;16038;47.692;9.400;2023-02-12T04:53:07;98519.28;;;-4.65;100.00
28927;BME280;16038;47.692;9.400;2023-02-12T04:55:33;98515.03;;;-4.73;100.00
28927;BME280;16038;47.692;9.400;2023-02-12T04:57:58;98509.84;;;-4.68;100.00
28927;BME280;16038;47.692;9.400;2023-02-12T05:00:24;98508.78;;;-4.67;100.00
28927;BME280;16038;47.692;9.400;2023-02-12T05:02:49;98508.06;;;-4.74;100.00
28927;BME280;16038;47.692;9.400;2023-02-12T05:05:14;98510.13;;;-4.76;100.00
28927;BME280;16038;47.692;9.400;2023-02-12T05:07:39;98510.66;;;-4.86;100.00
28927;BME280;16038;47.692;9.400;2023-02-12T05:10:05;98510.94;;;-4.94;100.00
28927;BME280;16038;47.692;9.400;2023-02-12T05:12:30;98513.63;;;-4.94;100.00
28927;BME280;16038;47.692;9.400;2023-02-12T05:14:56;98507.31;;;-5.00;100.00
28927;BME280;16038;47.692;9.400;2023-02-12T05:17:22;98509.53;;;-4.96;100.00
28927;BME280;16038;47.692;9.400;2023-02-12T05:19:47;98498.84;;;-4.78;100.00
28927;BME280;16038;47.692;9.400;2023-02-12T05:22:12;98506.44;;;-4.75;100.00
28927;BME280;16038;47.692;9.400;2023-02-12T05:24:38;98504.88;;;-4.64;100.00
28927;BME280;16038;47.692;9.400;2023-02-12T05:27:03;98505.47;;;-4.62;100.00
28927;BME280;16038;47.692;9.400;2023-02-12T05:29:28;98506.41;;;-4.56;100.00
28927;BME280;16038;47.692;9.400;2023-02-12T05:31:54;98504.78;;;-4.39;100.00
28927;BME280;16038;47.692;9.400;2023-02-12T05:34:19;98495.97;;;-4.28;100.00
28927;BME280;16038;47.692;9.400;2023-02-12T05:36:44;98500.41;;;-4.22;100.00
28927;BME280;16038;47.692;9.400;2023-02-12T05:39:09;98487.88;;;-4.09;100.00
28927;BME280;16038;47.692;9.400;2023-02-12T05:41:35;98486.59;;;-4.18;100.00
28927;BME280;16038;47.692;9.400;2023-02-12T05:44:01;98489.03;;;-4.17;100.00
28927;BME280;16038;47.692;9.400;2023-02-12T05:46:27;98484.97;;;-4.19;100.00
28927;BME280;16038;47.692;9.400;2023-02-12T05:48:52;98483.63;;;-4.29;100.00
28927;BME280;16038;47.692;9.400;2023-02-12T05:51:19;98487.50;;;-4.25;100.00
28927;BME280;16038;47.692;9.400;2023-02-12T05:53:45;98491.22;;;-4.26;100.00
28927;BME280;16038;47.692;9.400;2023-02-12T05:56:22;98484.09;;;-4.32;100.00
28927;BME280;16038;47.692;9.400;2023-02-12T05:58:51;98485.31;;;-4.16;100.00
28927;BME280;16038;47.692;9.400;2023-02-12T06:01:18;98486.56;;;-4.30;100.00
28927;BME280;16038;47.692;9.400;2023-02-12T06:03:43;98489.47;;;-4.50;100.00
28927;BME280;16038;47.692;9.400;2023-02-12T06:06:09;98488.50;;;-4.56;100.00
28927;BME280;16038;47.692;9.400;2023-02-12T06:08:34;98492.25;;;-4.57;100.00
28927;BME280;16038;47.692;9.400;2023-02-12T06:11:03;98496.47;;;-4.49;100.00
28927;BME280;16038;47.692;9.400;2023-02-12T06:13:31;98495.66;;;-4.50;100.00
28927;BME280;16038;47.692;9.400;2023-02-12T06:15:56;98501.72;;;-4.61;100.00
28927;BME280;16038;47.692;9.400;2023-02-12T06:18:22;98499.38;;;-4.69;100.00
28927;BME280;16038;47.692;9.400;2023-02-12T06:20:47;98495.22;;;-4.84;100.00
28927;BME280;16038;47.692;9.400;2023-02-12T06:23:13;98490.75;;;-4.71;100.00
28927;BME280;16038;47.692;9.400;2023-02-12T06:25:38;98488.06;;;-4.90;100.00
28927;BME280;16038;47.692;9.400;2023-02-12T06:28:03;98499.94;;;-5.04;100.00
28927;BME280;16038;47.692;9.400;2023-02-12T06:30:29;98504.63;;;-5.18;100.00
28927;BME280;16038;47.692;9.400;2023-02-12T06:32:56;98498.69;;;-5.20;100.00
28927;BME280;16038;47.692;9.400;2023-02-12T06:35:21;98506.25;;;-5.17;100.00
28927;BME280;16038;47.692;9.400;2023-02-12T06:37:46;98510.13;;;-5.13;100.00
28927;BME280;16038;47.692;9.400;2023-02-12T06:40:12;98504.84;;;-5.20;100.00
28927;BME280;16038;47.692;9.400;2023-02-12T06:42:37;98508.31;;;-5.19;100.00
28927;BME280;16038;47.692;9.400;2023-02-12T06:45:02;98511.31;;;-5.09;100.00
28927;BME280;16038;47.692;9.400;2023-02-12T06:47:28;98493.94;;;-5.00;100.00
28927;BME280;16038;47.692;9.400;2023-02-12T06:49:53;98505.44;;;-4.99;100.00
28927;BME280;16038;47.692;9.400;2023-02-12T06:52:18;98499.13;;;-5.05;100.00
28927;BME280;16038;47.692;9.400;2023-02-12T06:54:45;98507.09;;;-4.98;100.00
28927;BME280;16038;47.692;9.400;2023-02-12T06:57:10;98514.00;;;-4.90;100.00
28927;BME280;16038;47.692;9.400;2023-02-12T06:59:35;98510.50;;;-4.72;100.00
28927;BME280;16038;47.692;9.400;2023-02-12T07:02:01;98504.63;;;-4.44;100.00
28927;BME280;16038;47.692;9.400;2023-02-12T07:04:26;98506.97;;;-4.17;100.00
28927;BME280;16038;47.692;9.400;2023-02-12T07:06:51;98502.00;;;-4.02;100.00
28927;BME280;16038;47.692;9.400;2023-02-12T07:09:17;98511.09;;;-3.91;100.00
28927;BME280;16038;47.692;9.400;2023-02-12T07:11:42;98505.66;;;-3.85;100.00
28927;BME280;16038;47.692;9.400;2023-02-12T07:14:11;98511.03;;;-3.73;100.00
28927;BME280;16038;47.692;9.400;2023-02-12T07:16:37;98506.78;;;-3.50;100.00
28927;BME280;16038;47.692;9.400;2023-02-12T07:19:02;98504.22;;;-3.33;100.00
28927;BME280;16038;47.692;9.400;2023-02-12T07:21:28;98504.09;;;-3.03;100.00
28927;BME280;16038;47.692;9.400;2023-02-12T07:23:53;98503.38;;;-2.86;100.00
28927;BME280;16038;47.692;9.400;2023-02-12T07:26:19;98504.94;;;-2.09;100.00
28927;BME280;16038;47.692;9.400;2023-02-12T07:28:44;98503.78;;;-1.68;100.00
28927;BME280;16038;47.692;9.400;2023-02-12T07:31:14;98503.81;;;-0.56;100.00
28927;BME280;16038;47.692;9.400;2023-02-12T07:33:40;98505.78;;;-0.07;100.00
28927;BME280;16038;47.692;9.400;2023-02-12T07:36:09;98502.94;;;0.69;100.00
28927;BME280;16038;47.692;9.400;2023-02-12T07:38:35;98503.06;;;1.27;95.31
28927;BME280;16038;47.692;9.400;2023-02-12T07:41:13;98501.16;;;1.81;92.08
28927;BME280;16038;47.692;9.400;2023-02-12T07:43:39;98496.69;;;1.49;94.77
28927;BME280;16038;47.692;9.400;2023-02-12T07:46:06;98499.06;;;2.14;88.32
28927;BME280;16038;47.692;9.400;2023-02-12T07:48:31;98508.03;;;2.40;85.84
28927;BME280;16038;47.692;9.400;2023-02-12T07:51:01;98503.66;;;3.21;83.55
28927;BME280;16038;47.692;9.400;2023-02-12T07:53:26;98499.25;;;3.51;81.28
28927;BME280;16038;47.692;9.400;2023-02-12T07:55:51;98499.75;;;3.63;80.26
28927;BME280;16038;47.692;9.400;2023-02-12T07:58:16;98502.88;;;4.35;76.11
28927;BME280;16038;47.692;9.400;2023-02-12T08:00:42;98493.31;;;4.83;74.16
28927;BME280;16038;47.692;9.400;2023-02-12T08:03:07;98499.75;;;4.92;74.31
28927;BME280;16038;47.692;9.400;2023-02-12T08:05:32;98494.53;;;5.25;72.47
28927;BME280;16038;47.692;9.400;2023-02-12T08:07:57;98503.06;;;5.42;72.57
28927;BME280;16038;47.692;9.400;2023-02-12T08:10:23;98494.81;;;5.47;71.90
28927;BME280;16038;47.692;9.400;2023-02-12T08:12:48;98498.41;;;5.43;73.07
28927;BME280;16038;47.692;9.400;2023-02-12T08:15:13;98498.59;;;5.51;73.20
28927;BME280;16038;47.692;9.400;2023-02-12T08:17:38;98494.66;;;5.39;72.13
28927;BME280;16038;47.692;9.400;2023-02-12T08:20:04;98497.75;;;5.27;73.33
28927;BME280;16038;47.692;9.400;2023-02-12T08:22:29;98495.19;;;5.41;74.67
28927;BME280;16038;47.692;9.400;2023-02-12T08:24:54;98497.44;;;5.33;73.70
28927;BME280;16038;47.692;9.400;2023-02-12T08:27:20;98492.16;;;5.66;72.70
28927;BME280;16038;47.692;9.400;2023-02-12T08:29:45;98493.19;;;5.70;72.56
28927;BME280;16038;47.692;9.400;2023-02-12T08:32:10;98493.75;;;5.91;72.32
28927;BME280;16038;47.692;9.400;2023-02-12T08:34:38;98493.81;;;5.86;73.35
28927;BME280;16038;47.692;9.400;2023-02-12T08:37:04;98499.91;;;6.02;73.77
28927;BME280;16038;47.692;9.400;2023-02-12T08:39:29;98496.09;;;6.03;72.83
28927;BME280;16038;47.692;9.400;2023-02-12T08:41:55;98491.00;;;5.97;73.11
28927;BME280;16038;47.692;9.400;2023-02-12T08:44:21;98492.91;;;6.15;73.51
28927;BME280;16038;47.692;9.400;2023-02-12T08:46:47;98483.31;;;5.55;76.28
28927;BME280;16038;47.692;9.400;2023-02-12T08:49:15;98479.97;;;6.45;73.33
28927;BME280;16038;47.692;9.400;2023-02-12T08:51:43;98487.59;;;6.95;72.68
28927;BME280;16038;47.692;9.400;2023-02-12T08:54:10;98480.78;;;6.78;71.72
28927;BME280;16038;47.692;9.400;2023-02-12T08:56:35;98482.84;;;7.00;71.15
28927;BME280;16038;47.692;9.400;2023-02-12T08:59:02;98478.22;;;6.68;72.73
28927;BME280;16038;47.692;9.400;2023-02-12T09:01:29;98479.28;;;6.86;73.77
28927;BME280;16038;47.692;9.400;2023-02-12T09:03:54;98488.41;;;7.42;71.48
28927;BME280;16038;47.692;9.400;2023-02-12T09:06:21;98487.88;;;7.40;71.34
28927;BME280;16038;47.692;9.400;2023-02-12T09:08:47;98474.44;;;7.16;72.38
28927;BME280;16038;47.692;9.400;2023-02-12T09:11:14;98479.78;;;7.49;72.52
28927;BME280;16038;47.692;9.400;2023-02-12T09:13:43;98467.88;;;7.86;70.24
28927;BME280;16038;47.692;9.400;2023-02-12T09:16:09;98474.59;;;8.39;70.19
28927;BME280;16038;47.692;9.400;2023-02-12T09:18:34;98473.75;;;8.66;68.78
28927;BME280;16038;47.692;9.400;2023-02-12T09:21:04;98473.41;;;9.53;65.30
28927;BME280;16038;47.692;9.400;2023-02-12T09:23:30;98463.19;;;9.93;62.24
28927;BME280;16038;47.692;9.400;2023-02-12T09:25:56;98459.59;;;9.58;62.87
28927;BME280;16038;47.692;9.400;2023-02-12T09:28:21;98457.22;;;9.91;62.95
28927;BME280;16038;47.692;9.400;2023-02-12T09:30:46;98460.78;;;9.43;63.51
28927;BME280;16038;47.692;9.400;2023-02-12T09:33:11;98455.13;;;9.80;63.79
28927;BME280;16038;47.692;9.400;2023-02-12T09:35:37;98458.38;;;9.99;62.68
28927;BME280;16038;47.692;9.400;2023-02-12T09:38:03;98452.78;;;10.57;59.41
28927;BME280;16038;47.692;9.400;2023-02-12T09:40:32;98454.66;;;10.91;59.29
28927;BME280;16038;47.692;9.400;2023-02-12T09:45:35;98459.44;;;11.29;54.93
28927;BME280;16038;47.692;9.400;2023-02-12T09:51:12;98456.09;;;11.15;58.25
28927;BME280;16038;47.692;9.400;2023-02-12T09:53:32;98454.56;;;11.64;56.65
28927;BME280;16038;47.692;9.400;2023-02-12T09:55:59;98461.00;;;12.07;54.54
28927;BME280;16038;47.692;9.400;2023-02-12T10:01:09;98445.34;;;10.66;59.26
28927;BME280;16038;47.692;9.400;2023-02-12T10:03:35;98455.75;;;11.84;54.72
28927;BME280;16038;47.692;9.400;2023-02-12T10:06:02;98443.41;;;10.84;56.36
28927;BME280;16038;47.692;9.400;2023-02-12T10:11:15;98451.88;;;9.69;59.01
28927;BME280;16038;47.692;9.400;2023-02-12T10:16:34;98457.44;;;9.46;62.72
28927;BME280;16038;47.692;9.400;2023-02-12T10:19:18;98450.16;;;9.02;62.03
28927;BME280;16038;47.692;9.400;2023-02-12T10:21:52;98443.81;;;9.64;61.99
28927;BME280;16038;47.692;9.400;2023-02-12T10:24:23;98456.16;;;10.19;60.47
28927;BME280;16038;47.692;9.400;2023-02-12T10:26:53;98443.72;;;10.04;59.25
28927;BME280;16038;47.692;9.400;2023-02-12T10:29:24;98441.19;;;10.42;58.83
28927;BME280;16038;47.692;9.400;2023-02-12T10:31:52;98430.69;;;9.83;60.18
28927;BME280;16038;47.692;9.400;2023-02-12T10:34:25;98430.97;;;9.73;61.02
28927;BME280;16038;47.692;9.400;2023-02-12T10:36:51;98429.44;;;9.41;62.98
28927;BME280;16038;47.692;9.400;2023-02-12T10:39:23;98437.72;;;9.75;60.74
28927;BME280;16038;47.692;9.400;2023-02-12T10:44:18;98430.78;;;9.69;62.95
28927;BME280;16038;47.692;9.400;2023-02-12T10:46:43;98428.75;;;9.92;61.97
28927;BME280;16038;47.692;9.400;2023-02-12T10:49:10;98417.66;;;10.24;61.30
28927;BME280;16038;47.692;9.400;2023-02-12T10:56:54;98405.97;;;9.57;63.22
28927;BME280;16038;47.692;9.400;2023-02-12T10:59:22;98405.25;;;10.09;62.64
28927;BME280;16038;47.692;9.400;2023-02-12T11:01:48;98407.50;;;11.54;58.30
28927;BME280;16038;47.692;9.400;2023-02-12T11:04:27;98401.44;;;11.01;55.99
28927;BME280;16038;47.692;9.400;2023-02-12T11:06:57;98406.47;;;10.90;58.51
28927;BME280;16038;47.692;9.400;2023-02-12T11:09:27;98406.28;;;11.72;55.83
28927;BME280;16038;47.692;9.400;2023-02-12T11:11:53;98396.16;;;10.78;57.82
28927;BME280;16038;47.692;9.400;2023-02-12T11:14:19;98400.38;;;10.76;58.75
28927;BME280;16038;47.692;9.400;2023-02-12T11:16:49;98395.09;;;10.09;59.44
28927;BME280;16038;47.692;9.400;2023-02-12T11:19:20;98388.34;;;10.07;60.82
28927;BME280;16038;47.692;9.400;2023-02-12T11:21:46;98391.06;;;10.24;60.56
28927;BME280;16038;47.692;9.400;2023-02-12T11:24:21;98391.88;;;10.07;61.63
28927;BME280;16038;47.692;9.400;2023-02-12T11:26:47;98385.09;;;9.70;64.29
28927;BME280;16038;47.692;9.400;2023-02-12T11:29:19;98362.88;;;10.06;63.38
28927;BME280;16038;47.692;9.400;2023-02-12T11:32:02;98374.59;;;9.63;65.03
28927;BME280;16038;47.692;9.400;2023-02-12T11:34:27;98367.91;;;8.49;69.67
28927;BME280;16038;47.692;9.400;2023-02-12T11:36:54;98366.97;;;8.85;72.72
28927;BME280;16038;47.692;9.400;2023-02-12T11:42:34;98355.81;;;8.73;75.20
28927;BME280;16038;47.692;9.400;2023-02-12T11:44:39;98354.09;;;9.34;73.67
28927;BME280;16038;47.692;9.400;2023-02-12T11:47:09;98343.88;;;9.66;73.27
28927;BME280;16038;47.692;9.400;2023-02-12T11:49:49;98346.47;;;10.41;69.69
28927;BME280;16038;47.692;9.400;2023-02-12T11:52:20;98343.16;;;10.74;68.82
28927;BME280;16038;47.692;9.400;2023-02-12T11:54:46;98339.88;;;10.89;67.09
28927;BME280;16038;47.692;9.400;2023-02-12T11:59:56;98331.97;;;10.06;72.00
28927;BME280;16038;47.692;9.400;2023-02-12T12:02:30;98330.50;;;10.90;65.78
28927;BME280;16038;47.692;9.400;2023-02-12T12:05:10;98322.25;;;10.61;67.19
28927;BME280;16038;47.692;9.400;2023-02-12T12:07:38;98321.28;;;11.04;65.43
28927;BME280;16038;47.692;9.400;2023-02-12T12:15:15;98312.19;;;9.83;72.35
28927;BME280;16038;47.692;9.400;2023-02-12T12:20:55;98313.94;;;10.31;74.23
28927;BME280;16038;47.692;9.400;2023-02-12T12:23:36;98308.59;;;10.90;69.97
28927;BME280;16038;47.692;9.400;2023-02-12T12:26:15;98307.78;;;10.90;66.81
28927;BME280;16038;47.692;9.400;2023-02-12T12:28:47;98302.44;;;11.74;65.57
28927;BME280;16038;47.692;9.400;2023-02-12T12:31:24;98303.34;;;11.06;66.29
28927;BME280;16038;47.692;9.400;2023-02-12T12:33:58;98303.63;;;11.14;65.09
28927;BME280;16038;47.692;9.400;2023-02-12T12:44:26;98291.53;;;10.20;69.88
28927;BME280;16038;47.692;9.400;2023-02-12T12:55:01;98285.31;;;10.67;65.50
28927;BME280;16038;47.692;9.400;2023-02-12T13:02:48;98275.91;;;11.78;62.35
28927;BME280;16038;47.692;9.400;2023-02-12T13:08:07;98275.84;;;11.87;62.78
28927;BME280;16038;47.692;9.400;2023-02-12T13:16:20;98274.94;;;10.34;66.03
28927;BME280;16038;47.692;9.400;2023-02-12T13:18:46;98267.53;;;10.35;68.26
28927;BME280;16038;47.692;9.400;2023-02-12T13:23:44;98274.06;;;10.51;70.22
28927;BME280;16038;47.692;9.400;2023-02-12T13:26:22;98262.78;;;10.91;66.87
28927;BME280;16038;47.692;9.400;2023-02-12T13:28:55;98261.47;;;10.59;65.84
28927;BME280;16038;47.692;9.400;2023-02-12T13:31:24;98263.06;;;10.04;69.82
28927;BME280;16038;47.692;9.400;2023-02-12T13:33:57;98260.94;;;10.27;70.78
28927;BME280;16038;47.692;9.400;2023-02-12T13:36:23;98257.38;;;10.26;70.64
28927;BME280;16038;47.692;9.400;2023-02-12T13:38:56;98251.19;;;9.82;73.32
28927;BME280;16038;47.692;9.400;2023-02-12T13:41:23;98256.72;;;10.38;72.13
28927;BME280;16038;47.692;9.400;2023-02-12T13:52:07;98256.81;;;10.59;72.99
28927;BME280;16038;47.692;9.400;2023-02-12T13:57:01;98260.47;;;10.33;72.98
28927;BME280;16038;47.692;9.400;2023-02-12T14:01:59;98258.25;;;10.57;73.81
28927;BME280;16038;47.692;9.400;2023-02-12T14:04:27;98250.47;;;10.11;73.42
28927;BME280;16038;47.692;9.400;2023-02-12T14:06:58;98252.25;;;10.33;74.53
28927;BME280;16038;47.692;9.400;2023-02-12T14:09:35;98245.19;;;10.62;72.84
28927;BME280;16038;47.692;9.400;2023-02-12T14:12:03;98253.72;;;10.99;71.16
28927;BME280;16038;47.692;9.400;2023-02-12T14:14:33;98240.19;;;10.94;70.69
28927;BME280;16038;47.692;9.400;2023-02-12T14:24:56;98249.22;;;10.09;75.22
28927;BME280;16038;47.692;9.400;2023-02-12T14:35:30;98251.97;;;9.83;76.93
28927;BME280;16038;47.692;9.400;2023-02-12T14:37:57;98244.03;;;10.25;76.88
28927;BME280;16038;47.692;9.400;2023-02-12T14:42:57;98239.13;;;9.83;78.04
28927;BME280;16038;47.692;9.400;2023-02-12T14:45:30;98239.59;;;9.85;78.47
28927;BME280;16038;47.692;9.400;2023-02-12T14:47:56;98225.91;;;9.76;77.24
28927;BME280;16038;47.692;9.400;2023-02-12T14:50:26;98240.22;;;9.91;78.92
28927;BME280;16038;47.692;9.400;2023-02-12T14:52:54;98230.22;;;10.04;77.85
28927;BME280;16038;47.692;9.400;2023-02-12T14:55:25;98235.38;;;9.88;77.80
28927;BME280;16038;47.692;9.400;2023-02-12T14:57:58;98233.81;;;9.69;80.14
28927;BME280;16038;47.692;9.400;2023-02-12T15:00:46;98229.13;;;9.70;78.83
28927;BME280;16038;47.692;9.400;2023-02-12T15:03:15;98232.34;;;9.63;79.86
28927;BME280;16038;47.692;9.400;2023-02-12T15:10:52;98232.03;;;9.65;80.00
28927;BME280;16038;47.692;9.400;2023-02-12T15:16:11;98234.44;;;9.57;80.03
28927;BME280;16038;47.692;9.400;2023-02-12T15:24:11;98231.34;;;8.98;83.24
28927;BME280;16038;47.692;9.400;2023-02-12T15:26:40;98224.44;;;8.92;83.77
28927;BME280;16038;47.692;9.400;2023-02-12T15:29:06;98238.22;;;8.78;84.96
28927;BME280;16038;47.692;9.400;2023-02-12T15:31:32;98233.72;;;8.73;85.44
28927;BME280;16038;47.692;9.400;2023-02-12T15:33:58;98236.78;;;8.80;85.07
28927;BME280;16038;47.692;9.400;2023-02-12T15:36:25;98233.44;;;8.92;84.32